sensor_id;sensor_type;location;lat;lon;timestamp;pressure;altitude;pressure_sealevel;temperature;humidity
71795;BME280;59641;45.188;5.712;2024-03-06T00:01:10;99551.50;;;9.89;57.62
71795;BME280;59641;45.188;5.712;2024-03-06T00:03:35;99551.28;;;9.91;57.52
71795;BME280;59641;45.188;5.712;2024-03-06T00:06:00;99555.81;;;9.90;57.75
71795;BME280;59641;45.188;5.712;2024-03-06T00:08:26;99555.41;;;9.93;57.80
71795;BME280;59641;45.188;5.712;2024-03-06T00:10:51;99555.00;;;9.96;57.91
71795;BME280;59641;45.188;5.712;2024-03-06T00:13:17;99559.75;;;9.94;57.66
71795;BME280;59641;45.188;5.712;2024-03-06T00:15:42;99561.38;;;9.95;57.86
71795;BME280;59641;45.188;5.712;2024-03-06T00:18:07;99565.72;;;9.96;57.55
71795;BME280;59641;45.188;5.712;2024-03-06T00:20:33;99565.31;;;9.93;57.50
71795;BME280;59641;45.188;5.712;2024-03-06T00:22:58;99571.50;;;9.93;57.27
71795;BME280;59641;45.188;5.712;2024-03-06T00:25:24;99575.19;;;9.92;57.50
71795;BME280;59641;45.188;5.712;2024-03-06T00:27:50;99568.59;;;9.95;57.62
71795;BME280;59641;45.188;5.712;2024-03-06T00:30:15;99566.97;;;9.94;57.23
71795;BME280;59641;45.188;5.712;2024-03-06T00:32:40;99569.84;;;9.92;57.50
71795;BME280;59641;45.188;5.712;2024-03-06T00:35:06;99580.38;;;9.94;57.67
71795;BME280;59641;45.188;5.712;2024-03-06T00:37:31;99580.75;;;9.97;57.76
71795;BME280;59641;45.188;5.712;2024-03-06T00:39:57;99581.16;;;10.01;57.87
71795;BME280;59641;45.188;5.712;2024-03-06T00:42:22;99574.34;;;10.05;58.11
71795;BME280;59641;45.188;5.712;2024-03-06T00:44:47;99575.56;;;10.09;57.67
71795;BME280;59641;45.188;5.712;2024-03-06T00:47:13;99575.75;;;10.08;57.71
71795;BME280;59641;45.188;5.712;2024-03-06T00:49:38;99576.63;;;10.08;57.88
71795;BME280;59641;45.188;5.712;2024-03-06T00:52:04;99580.53;;;10.06;57.79
71795;BME280;59641;45.188;5.712;2024-03-06T00:54:29;99578.69;;;9.99;58.36
71795;BME280;59641;45.188;5.712;2024-03-06T00:56:56;99581.16;;;10.01;58.25
71795;BME280;59641;45.188;5.712;2024-03-06T00:59:22;99583.63;;;10.02;58.70
71795;BME280;59641;45.188;5.712;2024-03-06T01:01:48;99574.56;;;10.03;58.20
71795;BME280;59641;45.188;5.712;2024-03-06T01:04:13;99594.53;;;10.08;58.13
71795;BME280;59641;45.188;5.712;2024-03-06T01:06:39;99585.28;;;10.10;58.35
71795;BME280;59641;45.188;5.712;2024-03-06T01:09:05;99585.28;;;10.10;57.96
71795;BME280;59641;45.188;5.712;2024-03-06T01:11:30;99591.44;;;10.11;58.13
71795;BME280;59641;45.188;5.712;2024-03-06T01:13:55;99581.75;;;10.10;58.34
71795;BME280;59641;45.188;5.712;2024-03-06T01:16:21;99585.66;;;10.07;58.22
71795;BME280;59641;45.188;5.712;2024-03-06T01:18:46;99595.75;;;10.12;58.80
71795;BME280;59641;45.188;5.712;2024-03-06T01:21:11;99589.78;;;10.16;59.08
71795;BME280;59641;45.188;5.712;2024-03-06T01:23:37;99598.44;;;10.18;58.53
71795;BME280;59641;45.188;5.712;2024-03-06T01:26:02;99594.72;;;10.19;59.01
71795;BME280;59641;45.188;5.712;2024-03-06T01:28:27;99587.91;;;10.23;59.00
71795;BME280;59641;45.188;5.712;2024-03-06T01:30:53;99597.16;;;10.28;59.15
71795;BME280;59641;45.188;5.712;2024-03-06T01:33:19;99592.03;;;10.33;59.30
71795;BME280;59641;45.188;5.712;2024-03-06T01:35:45;99590.56;;;10.37;59.08
71795;BME280;59641;45.188;5.712;2024-03-06T01:38:10;99585.59;;;10.40;59.16
71795;BME280;59641;45.188;5.712;2024-03-06T01:40:36;99594.03;;;10.44;59.10
71795;BME280;59641;45.188;5.712;2024-03-06T01:43:02;99594.44;;;10.48;59.14
71795;BME280;59641;45.188;5.712;2024-03-06T01:45:27;99585.38;;;10.49;58.94
71795;BME280;59641;45.188;5.712;2024-03-06T01:47:53;99590.50;;;10.50;58.70
71795;BME280;59641;45.188;5.712;2024-03-06T01:50:18;99589.25;;;10.53;58.35
71795;BME280;59641;45.188;5.712;2024-03-06T01:52:44;99590.50;;;10.50;57.98
71795;BME280;59641;45.188;5.712;2024-03-06T01:55:11;99590.72;;;10.49;58.01
71795;BME280;59641;45.188;5.712;2024-03-06T01:57:39;99580.00;;;10.49;57.86
71795;BME280;59641;45.188;5.712;2024-03-06T02:00:07;99587.84;;;10.43;57.53
71795;BME280;59641;45.188;5.712;2024-03-06T02:02:39;99577.97;;;10.37;57.28
71795;BME280;59641;45.188;5.712;2024-03-06T02:05:05;99585.59;;;10.34;57.36
71795;BME280;59641;45.188;5.712;2024-03-06T02:07:32;99582.94;;;10.27;57.06
71795;BME280;59641;45.188;5.712;2024-03-06T02:09:58;99584.16;;;10.24;57.07
71795;BME280;59641;45.188;5.712;2024-03-06T02:12:23;99596.56;;;10.19;57.19
71795;BME280;59641;45.188;5.712;2024-03-06T02:14:48;99588.34;;;10.14;56.99
71795;BME280;59641;45.188;5.712;2024-03-06T02:17:14;99586.28;;;10.09;57.06
71795;BME280;59641;45.188;5.712;2024-03-06T02:19:43;99591.47;;;10.04;57.05
71795;BME280;59641;45.188;5.712;2024-03-06T02:22:10;99590.47;;;9.98;57.00
71795;BME280;59641;45.188;5.712;2024-03-06T02:24:36;99590.84;;;9.95;56.98
71795;BME280;59641;45.188;5.712;2024-03-06T02:27:05;99593.53;;;9.95;56.93
71795;BME280;59641;45.188;5.712;2024-03-06T02:29:33;99588.19;;;9.95;57.25
71795;BME280;59641;45.188;5.712;2024-03-06T02:31:59;99589.84;;;9.96;57.34
71795;BME280;59641;45.188;5.712;2024-03-06T02:34:24;99598.91;;;9.95;57.47
71795;BME280;59641;45.188;5.712;2024-03-06T02:36:51;99599.13;;;9.94;57.64
71795;BME280;59641;45.188;5.712;2024-03-06T02:39:17;99588.59;;;9.92;57.44
71795;BME280;59641;45.188;5.712;2024-03-06T02:41:42;99594.16;;;9.91;57.33
71795;BME280;59641;45.188;5.712;2024-03-06T02:44:08;99598.09;;;9.88;57.40
71795;BME280;59641;45.188;5.712;2024-03-06T02:46:33;99590.47;;;9.85;57.48
71795;BME280;59641;45.188;5.712;2024-03-06T02:48:59;99600.59;;;9.83;57.54
71795;BME280;59641;45.188;5.712;2024-03-06T02:51:25;99599.13;;;9.80;57.32
71795;BME280;59641;45.188;5.712;2024-03-06T02:53:51;99597.72;;;9.78;57.50
71795;BME280;59641;45.188;5.712;2024-03-06T02:56:18;99604.13;;;9.77;57.53
71795;BME280;59641;45.188;5.712;2024-03-06T02:58:44;99603.69;;;9.73;57.49
71795;BME280;59641;45.188;5.712;2024-03-06T03:01:10;99613.78;;;9.71;57.31
71795;BME280;59641;45.188;5.712;2024-03-06T03:03:35;99611.97;;;9.72;57.58
71795;BME280;59641;45.188;5.712;2024-03-06T03:06:01;99622.06;;;9.70;57.38
71795;BME280;59641;45.188;5.712;2024-03-06T03:08:26;99623.06;;;9.69;57.53
71795;BME280;59641;45.188;5.712;2024-03-06T03:10:52;99628.84;;;9.66;57.60
71795;BME280;59641;45.188;5.712;2024-03-06T03:13:17;99623.69;;;9.64;57.54
71795;BME280;59641;45.188;5.712;2024-03-06T03:15:42;99626.59;;;9.63;57.76
71795;BME280;59641;45.188;5.712;2024-03-06T03:18:08;99619.56;;;9.62;57.77
71795;BME280;59641;45.188;5.712;2024-03-06T03:20:33;99617.13;;;9.60;57.73
71795;BME280;59641;45.188;5.712;2024-03-06T03:23:00;99613.00;;;9.57;57.73
71795;BME280;59641;45.188;5.712;2024-03-06T03:25:26;99615.06;;;9.55;57.92
71795;BME280;59641;45.188;5.712;2024-03-06T03:27:51;99605.97;;;9.56;57.92
71795;BME280;59641;45.188;5.712;2024-03-06T03:30:17;99616.50;;;9.58;58.17
71795;BME280;59641;45.188;5.712;2024-03-06T03:32:46;99613.81;;;9.58;57.96
71795;BME280;59641;45.188;5.712;2024-03-06T03:35:12;99616.69;;;9.56;58.09
71795;BME280;59641;45.188;5.712;2024-03-06T03:37:37;99620.19;;;9.57;57.98
71795;BME280;59641;45.188;5.712;2024-03-06T03:40:03;99622.06;;;9.56;58.26
71795;BME280;59641;45.188;5.712;2024-03-06T03:42:28;99618.75;;;9.54;58.19
71795;BME280;59641;45.188;5.712;2024-03-06T03:44:53;99619.38;;;9.56;58.22
71795;BME280;59641;45.188;5.712;2024-03-06T03:47:19;99610.50;;;9.56;58.37
71795;BME280;59641;45.188;5.712;2024-03-06T03:49:44;99620.19;;;9.57;58.30
71795;BME280;59641;45.188;5.712;2024-03-06T03:52:10;99615.25;;;9.54;58.48
71795;BME280;59641;45.188;5.712;2024-03-06T03:54:35;99614.44;;;9.53;58.65
71795;BME280;59641;45.188;5.712;2024-03-06T03:57:01;99621.84;;;9.51;58.69
71795;BME280;59641;45.188;5.712;2024-03-06T03:59:26;99617.94;;;9.47;58.65
71795;BME280;59641;45.188;5.712;2024-03-06T04:01:52;99623.69;;;9.44;58.71
71795;BME280;59641;45.188;5.712;2024-03-06T04:04:17;99623.91;;;9.43;58.89
71795;BME280;59641;45.188;5.712;2024-03-06T04:06:43;99626.38;;;9.44;58.93
71795;BME280;59641;45.188;5.712;2024-03-06T04:09:08;99627.81;;;9.47;59.05
71795;BME280;59641;45.188;5.712;2024-03-06T04:11:37;99628.44;;;9.49;58.91
71795;BME280;59641;45.188;5.712;2024-03-06T04:14:03;99628.25;;;9.50;58.89
71795;BME280;59641;45.188;5.712;2024-03-06T04:16:29;99631.13;;;9.49;58.91
71795;BME280;59641;45.188;5.712;2024-03-06T04:18:54;99635.44;;;9.50;58.78
71795;BME280;59641;45.188;5.712;2024-03-06T04:21:19;99629.88;;;9.51;58.98
71795;BME280;59641;45.188;5.712;2024-03-06T04:23:45;99642.84;;;9.54;59.03
71795;BME280;59641;45.188;5.712;2024-03-06T04:26:10;99634.19;;;9.52;59.04
71795;BME280;59641;45.188;5.712;2024-03-06T04:28:35;99638.34;;;9.55;59.17
71795;BME280;59641;45.188;5.712;2024-03-06T04:31:01;99637.31;;;9.56;59.14
71795;BME280;59641;45.188;5.712;2024-03-06T04:33:26;99634.81;;;9.54;59.03
71795;BME280;59641;45.188;5.712;2024-03-06T04:35:51;99637.91;;;9.51;59.15
71795;BME280;59641;45.188;5.712;2024-03-06T04:38:17;99642.03;;;9.47;59.21
71795;BME280;59641;45.188;5.712;2024-03-06T04:40:42;99641.00;;;9.42;59.19
71795;BME280;59641;45.188;5.712;2024-03-06T04:43:08;99634.41;;;9.44;59.40
71795;BME280;59641;45.188;5.712;2024-03-06T04:45:33;99636.69;;;9.47;59.13
71795;BME280;59641;45.188;5.712;2024-03-06T04:47:59;99644.94;;;9.46;59.07
71795;BME280;59641;45.188;5.712;2024-03-06T04:50:24;99647.63;;;9.46;58.90
71795;BME280;59641;45.188;5.712;2024-03-06T04:52:49;99644.94;;;9.46;58.86
71795;BME280;59641;45.188;5.712;2024-03-06T04:55:15;99650.91;;;9.48;58.80
71795;BME280;59641;45.188;5.712;2024-03-06T04:57:45;99648.63;;;9.51;58.84
71795;BME280;59641;45.188;5.712;2024-03-06T05:00:11;99645.75;;;9.53;58.96
71795;BME280;59641;45.188;5.712;2024-03-06T05:02:37;99649.88;;;9.55;58.81
71795;BME280;59641;45.188;5.712;2024-03-06T05:05:03;99649.66;;;9.57;58.75
71795;BME280;59641;45.188;5.712;2024-03-06T05:07:30;99650.28;;;9.59;58.62
71795;BME280;59641;45.188;5.712;2024-03-06T05:09:56;99654.63;;;9.60;58.65
71795;BME280;59641;45.188;5.712;2024-03-06T05:12:25;99651.72;;;9.62;58.64
71795;BME280;59641;45.188;5.712;2024-03-06T05:14:51;99652.56;;;9.62;58.79
71795;BME280;59641;45.188;5.712;2024-03-06T05:17:17;99652.16;;;9.65;58.72
71795;BME280;59641;45.188;5.712;2024-03-06T05:19:43;99659.75;;;9.68;58.83
71795;BME280;59641;45.188;5.712;2024-03-06T05:22:08;99662.03;;;9.71;58.89
71795;BME280;59641;45.188;5.712;2024-03-06T05:24:33;99656.28;;;9.74;58.52
71795;BME280;59641;45.188;5.712;2024-03-06T05:26:59;99665.94;;;9.75;58.40
71795;BME280;59641;45.188;5.712;2024-03-06T05:29:24;99657.91;;;9.75;58.23
71795;BME280;59641;45.188;5.712;2024-03-06T05:31:49;99666.38;;;9.72;58.09
71795;BME280;59641;45.188;5.712;2024-03-06T05:34:15;99662.88;;;9.72;58.16
71795;BME280;59641;45.188;5.712;2024-03-06T05:36:40;99670.69;;;9.73;58.08
71795;BME280;59641;45.188;5.712;2024-03-06T05:39:05;99669.66;;;9.74;58.04
71795;BME280;59641;45.188;5.712;2024-03-06T05:41:33;99666.38;;;9.72;57.78
71795;BME280;59641;45.188;5.712;2024-03-06T05:43:58;99676.66;;;9.75;57.91
71795;BME280;59641;45.188;5.712;2024-03-06T05:46:23;99666.13;;;9.74;57.86
71795;BME280;59641;45.188;5.712;2024-03-06T05:48:49;99673.59;;;9.72;57.92
71795;BME280;59641;45.188;5.712;2024-03-06T05:51:15;99679.16;;;9.70;57.88
71795;BME280;59641;45.188;5.712;2024-03-06T05:53:40;99677.28;;;9.71;58.07
71795;BME280;59641;45.188;5.712;2024-03-06T05:56:07;99679.75;;;9.72;58.00
71795;BME280;59641;45.188;5.712;2024-03-06T05:58:33;99677.47;;;9.76;57.89
71795;BME280;59641;45.188;5.712;2024-03-06T06:01:00;99678.91;;;9.78;57.75
71795;BME280;59641;45.188;5.712;2024-03-06T06:03:25;99681.41;;;9.80;57.56
71795;BME280;59641;45.188;5.712;2024-03-06T06:05:50;99679.53;;;9.80;57.75
71795;BME280;59641;45.188;5.712;2024-03-06T06:08:15;99678.31;;;9.83;57.56
71795;BME280;59641;45.188;5.712;2024-03-06T06:10:41;99683.66;;;9.83;57.81
71795;BME280;59641;45.188;5.712;2024-03-06T06:13:06;99696.88;;;9.85;57.58
71795;BME280;59641;45.188;5.712;2024-03-06T06:15:31;99692.13;;;9.87;57.71
71795;BME280;59641;45.188;5.712;2024-03-06T06:17:57;99700.78;;;9.89;57.62
71795;BME280;59641;45.188;5.712;2024-03-06T06:20:22;99696.88;;;9.91;57.52
71795;BME280;59641;45.188;5.712;2024-03-06T06:22:47;99704.69;;;9.93;57.34
71795;BME280;59641;45.188;5.712;2024-03-06T06:25:13;99702.63;;;9.95;57.45
71795;BME280;59641;45.188;5.712;2024-03-06T06:27:40;99699.94;;;9.95;57.36
71795;BME280;59641;45.188;5.712;2024-03-06T06:30:06;99698.94;;;9.96;57.56
71795;BME280;59641;45.188;5.712;2024-03-06T06:32:36;99704.28;;;9.96;57.72
71795;BME280;59641;45.188;5.712;2024-03-06T06:35:02;99707.78;;;9.96;57.25
71795;BME280;59641;45.188;5.712;2024-03-06T06:37:27;99706.13;;;9.95;57.62
71795;BME280;59641;45.188;5.712;2024-03-06T06:39:53;99709.44;;;9.97;57.38
71795;BME280;59641;45.188;5.712;2024-03-06T06:42:18;99712.13;;;9.97;57.44
71795;BME280;59641;45.188;5.712;2024-03-06T06:44:43;99709.66;;;9.96;57.31
71795;BME280;59641;45.188;5.712;2024-03-06T06:47:09;99713.78;;;9.98;57.35
71795;BME280;59641;45.188;5.712;2024-03-06T06:49:34;99718.28;;;9.98;57.19
71795;BME280;59641;45.188;5.712;2024-03-06T06:52:00;99712.53;;;10.01;57.24
71795;BME280;59641;45.188;5.712;2024-03-06T06:54:25;99713.97;;;10.03;57.39
71795;BME280;59641;45.188;5.712;2024-03-06T06:56:50;99715.63;;;10.05;57.07
71795;BME280;59641;45.188;5.712;2024-03-06T06:59:15;99711.28;;;10.03;57.03
71795;BME280;59641;45.188;5.712;2024-03-06T07:01:41;99713.75;;;10.05;56.99
71795;BME280;59641;45.188;5.712;2024-03-06T07:04:06;99713.56;;;10.07;57.04
71795;BME280;59641;45.188;5.712;2024-03-06T07:06:32;99723.22;;;10.08;57.28
71795;BME280;59641;45.188;5.712;2024-03-06T07:08:57;99721.59;;;10.07;57.23
71795;BME280;59641;45.188;5.712;2024-03-06T07:11:22;99729.63;;;10.07;57.94
71795;BME280;59641;45.188;5.712;2024-03-06T07:13:49;99727.59;;;10.09;58.04
71795;BME280;59641;45.188;5.712;2024-03-06T07:16:14;99730.06;;;10.10;58.00
71795;BME280;59641;45.188;5.712;2024-03-06T07:18:40;99727.59;;;10.09;57.97
71795;BME280;59641;45.188;5.712;2024-03-06T07:21:05;99724.47;;;10.05;58.20
71795;BME280;59641;45.188;5.712;2024-03-06T07:23:30;99733.38;;;10.06;58.47
71795;BME280;59641;45.188;5.712;2024-03-06T07:25:56;99729.44;;;10.08;58.35
71795;BME280;59641;45.188;5.712;2024-03-06T07:28:23;99727.38;;;10.10;58.12
71795;BME280;59641;45.188;5.712;2024-03-06T07:30:48;99736.03;;;10.12;58.24
71795;BME280;59641;45.188;5.712;2024-03-06T07:33:13;99739.31;;;10.14;58.40
71795;BME280;59641;45.188;5.712;2024-03-06T07:35:39;99730.88;;;10.17;58.60
71795;BME280;59641;45.188;5.712;2024-03-06T07:38:04;99740.97;;;10.22;58.43
71795;BME280;59641;45.188;5.712;2024-03-06T07:40:31;99741.38;;;10.26;58.45
71795;BME280;59641;45.188;5.712;2024-03-06T07:42:57;99739.97;;;10.30;58.31
71795;BME280;59641;45.188;5.712;2024-03-06T07:45:23;99744.28;;;10.31;58.31
71795;BME280;59641;45.188;5.712;2024-03-06T07:47:48;99740.97;;;10.35;58.28
71795;BME280;59641;45.188;5.712;2024-03-06T07:50:13;99746.97;;;10.37;58.54
71795;BME280;59641;45.188;5.712;2024-03-06T07:52:44;99749.84;;;10.42;58.24
71795;BME280;59641;45.188;5.712;2024-03-06T07:55:10;99747.16;;;10.42;57.82
71795;BME280;59641;45.188;5.712;2024-03-06T07:57:35;99742.63;;;10.43;58.09
71795;BME280;59641;45.188;5.712;2024-03-06T08:00:01;99739.72;;;10.44;58.31
71795;BME280;59641;45.188;5.712;2024-03-06T08:02:27;99750.03;;;10.48;58.50
71795;BME280;59641;45.188;5.712;2024-03-06T08:04:53;99738.88;;;10.51;58.24
71795;BME280;59641;45.188;5.712;2024-03-06T08:07:18;99739.28;;;10.54;58.49
71795;BME280;59641;45.188;5.712;2024-03-06T08:09:43;99734.94;;;10.60;58.42
71795;BME280;59641;45.188;5.712;2024-03-06T08:12:09;99740.72;;;10.63;58.45
71795;BME280;59641;45.188;5.712;2024-03-06T08:14:34;99732.44;;;10.65;58.16
71795;BME280;59641;45.188;5.712;2024-03-06T08:16:59;99734.72;;;10.68;58.24
71795;BME280;59641;45.188;5.712;2024-03-06T08:19:25;99733.25;;;10.72;58.08
71795;BME280;59641;45.188;5.712;2024-03-06T08:21:51;99735.28;;;10.77;58.02
71795;BME280;59641;45.188;5.712;2024-03-06T08:24:16;99730.97;;;10.76;58.12
71795;BME280;59641;45.188;5.712;2024-03-06T08:26:42;99734.03;;;10.79;58.00
71795;BME280;59641;45.188;5.712;2024-03-06T08:29:07;99734.47;;;10.83;58.31
71795;BME280;59641;45.188;5.712;2024-03-06T08:31:33;99737.31;;;10.88;57.92
71795;BME280;59641;45.188;5.712;2024-03-06T08:33:58;99741.44;;;10.91;58.20
71795;BME280;59641;45.188;5.712;2024-03-06T08:36:23;99736.69;;;10.93;57.92
71795;BME280;59641;45.188;5.712;2024-03-06T08:38:49;99734.63;;;10.95;57.68
71795;BME280;59641;45.188;5.712;2024-03-06T08:41:14;99735.63;;;10.94;57.73
71795;BME280;59641;45.188;5.712;2024-03-06T08:43:40;99736.91;;;10.91;57.56
71795;BME280;59641;45.188;5.712;2024-03-06T08:46:05;99735.47;;;10.88;57.78
71795;BME280;59641;45.188;5.712;2024-03-06T08:48:30;99737.94;;;10.90;57.72
71795;BME280;59641;45.188;5.712;2024-03-06T08:50:56;99735.25;;;10.90;58.03
71795;BME280;59641;45.188;5.712;2024-03-06T08:53:21;99737.94;;;10.97;58.29
71795;BME280;59641;45.188;5.712;2024-03-06T08:55:46;99733.56;;;11.02;58.36
71795;BME280;59641;45.188;5.712;2024-03-06T08:58:12;99733.94;;;11.06;58.14
71795;BME280;59641;45.188;5.712;2024-03-06T09:00:39;99733.69;;;11.14;58.13
71795;BME280;59641;45.188;5.712;2024-03-06T09:03:04;99735.13;;;11.17;57.76
71795;BME280;59641;45.188;5.712;2024-03-06T09:05:30;99741.13;;;11.19;58.12
71795;BME280;59641;45.188;5.712;2024-03-06T09:07:56;99738.44;;;11.19;57.86
71795;BME280;59641;45.188;5.712;2024-03-06T09:10:22;99750.00;;;11.19;57.90
71795;BME280;59641;45.188;5.712;2024-03-06T09:12:48;99741.75;;;11.21;57.95
71795;BME280;59641;45.188;5.712;2024-03-06T09:15:15;99745.00;;;11.23;57.83
71795;BME280;59641;45.188;5.712;2024-03-06T09:17:41;99743.16;;;11.23;57.92
71795;BME280;59641;45.188;5.712;2024-03-06T09:20:07;99750.78;;;11.26;57.80
71795;BME280;59641;45.188;5.712;2024-03-06T09:22:39;99743.97;;;11.24;57.80
71795;BME280;59641;45.188;5.712;2024-03-06T09:25:05;99752.03;;;11.24;57.71
71795;BME280;59641;45.188;5.712;2024-03-06T09:27:31;99751.22;;;11.23;58.05
71795;BME280;59641;45.188;5.712;2024-03-06T09:29:57;99752.66;;;11.26;57.68
71795;BME280;59641;45.188;5.712;2024-03-06T09:32:22;99744.97;;;11.29;58.03
71795;BME280;59641;45.188;5.712;2024-03-06T09:34:48;99743.72;;;11.32;57.77
71795;BME280;59641;45.188;5.712;2024-03-06T09:37:13;99743.50;;;11.34;58.03
71795;BME280;59641;45.188;5.712;2024-03-06T09:39:40;99752.81;;;11.38;57.67
71795;BME280;59641;45.188;5.712;2024-03-06T09:42:05;99749.88;;;11.39;57.67
71795;BME280;59641;45.188;5.712;2024-03-06T09:44:31;99749.06;;;11.39;57.75
71795;BME280;59641;45.188;5.712;2024-03-06T09:46:59;99749.69;;;11.41;57.64
71795;BME280;59641;45.188;5.712;2024-03-06T09:49:27;99742.22;;;11.43;57.85
71795;BME280;59641;45.188;5.712;2024-03-06T09:51:53;99740.34;;;11.43;57.48
71795;BME280;59641;45.188;5.712;2024-03-06T09:54:20;99737.84;;;11.48;57.43
71795;BME280;59641;45.188;5.712;2024-03-06T09:56:47;99739.28;;;11.51;57.40
71795;BME280;59641;45.188;5.712;2024-03-06T09:59:13;99739.44;;;11.56;57.31
71795;BME280;59641;45.188;5.712;2024-03-06T10:01:50;99748.53;;;11.62;57.44
71795;BME280;59641;45.188;5.712;2024-03-06T10:04:26;99745.59;;;11.63;57.22
71795;BME280;59641;45.188;5.712;2024-03-06T10:06:56;99745.75;;;11.68;57.19
71795;BME280;59641;45.188;5.712;2024-03-06T10:09:22;99742.47;;;11.66;56.68
71795;BME280;59641;45.188;5.712;2024-03-06T10:11:48;99748.44;;;11.68;56.03
71795;BME280;59641;45.188;5.712;2024-03-06T10:14:14;99741.03;;;11.64;56.24
71795;BME280;59641;45.188;5.712;2024-03-06T10:16:59;99739.41;;;11.63;55.44
71795;BME280;59641;45.188;5.712;2024-03-06T10:19:26;99738.78;;;11.61;55.03
71795;BME280;59641;45.188;5.712;2024-03-06T10:21:55;99737.97;;;11.60;55.02
71795;BME280;59641;45.188;5.712;2024-03-06T10:24:23;99732.59;;;11.60;54.81
71795;BME280;59641;45.188;5.712;2024-03-06T10:26:54;99734.03;;;11.63;54.91
71795;BME280;59641;45.188;5.712;2024-03-06T10:29:21;99732.56;;;11.67;54.46
71795;BME280;59641;45.188;5.712;2024-03-06T10:32:07;99737.03;;;11.73;54.09
71795;BME280;59641;45.188;5.712;2024-03-06T10:34:33;99730.41;;;11.76;54.58
71795;BME280;59641;45.188;5.712;2024-03-06T10:37:01;99729.31;;;11.83;54.48
71795;BME280;59641;45.188;5.712;2024-03-06T10:39:33;99726.41;;;11.91;54.26
71795;BME280;59641;45.188;5.712;2024-03-06T10:42:02;99728.44;;;11.96;53.65
71795;BME280;59641;45.188;5.712;2024-03-06T10:44:27;99726.94;;;12.00;53.56
71795;BME280;59641;45.188;5.712;2024-03-06T10:47:01;99730.00;;;12.04;53.55
71795;BME280;59641;45.188;5.712;2024-03-06T10:49:27;99726.06;;;12.06;53.49
71795;BME280;59641;45.188;5.712;2024-03-06T10:51:57;99722.91;;;12.09;53.48
71795;BME280;59641;45.188;5.712;2024-03-06T10:54:25;99722.69;;;12.11;53.62
71795;BME280;59641;45.188;5.712;2024-03-06T10:56:51;99721.44;;;12.13;53.45
71795;BME280;59641;45.188;5.712;2024-03-06T10:59:19;99723.69;;;12.17;53.30
71795;BME280;59641;45.188;5.712;2024-03-06T11:01:46;99718.91;;;12.19;53.29
71795;BME280;59641;45.188;5.712;2024-03-06T11:04:12;99716.00;;;12.20;52.78
71795;BME280;59641;45.188;5.712;2024-03-06T11:06:38;99711.66;;;12.19;53.00
71795;BME280;59641;45.188;5.712;2024-03-06T11:09:04;99721.13;;;12.22;53.07
71795;BME280;59641;45.188;5.712;2024-03-06T11:11:31;99709.97;;;12.25;52.55
71795;BME280;59641;45.188;5.712;2024-03-06T11:14:01;99705.34;;;12.32;52.82
71795;BME280;59641;45.188;5.712;2024-03-06T11:16:32;99698.00;;;12.39;52.70
71795;BME280;59641;45.188;5.712;2024-03-06T11:19:17;99699.78;;;12.45;52.41
71795;BME280;59641;45.188;5.712;2024-03-06T11:21:46;99704.75;;;12.48;52.69
71795;BME280;59641;45.188;5.712;2024-03-06T11:24:21;99695.41;;;12.51;52.31
71795;BME280;59641;45.188;5.712;2024-03-06T11:29:17;99696.81;;;12.53;52.25
71795;BME280;59641;45.188;5.712;2024-03-06T11:32:01;99681.03;;;12.57;52.05
71795;BME280;59641;45.188;5.712;2024-03-06T11:34:27;99692.84;;;12.56;51.98
71795;BME280;59641;45.188;5.712;2024-03-06T11:36:57;99685.38;;;12.58;51.47
71795;BME280;59641;45.188;5.712;2024-03-06T11:39:22;99690.16;;;12.56;51.44
71795;BME280;59641;45.188;5.712;2024-03-06T11:41:49;99685.59;;;12.56;51.02
71795;BME280;59641;45.188;5.712;2024-03-06T11:44:16;99681.28;;;12.55;50.99
71795;BME280;59641;45.188;5.712;2024-03-06T11:49:19;99671.06;;;12.57;50.68
71795;BME280;59641;45.188;5.712;2024-03-06T11:51:50;99671.06;;;12.57;50.12
71795;BME280;59641;45.188;5.712;2024-03-06T11:54:16;99668.38;;;12.57;49.78
71795;BME280;59641;45.188;5.712;2024-03-06T11:56:44;99667.34;;;12.58;49.59
71795;BME280;59641;45.188;5.712;2024-03-06T11:59:10;99660.09;;;12.59;49.19
71795;BME280;59641;45.188;5.712;2024-03-06T12:01:37;99647.00;;;12.63;49.68
71795;BME280;59641;45.188;5.712;2024-03-06T12:04:03;99650.75;;;12.62;49.12
71795;BME280;59641;45.188;5.712;2024-03-06T12:06:31;99649.69;;;12.63;48.88
71795;BME280;59641;45.188;5.712;2024-03-06T12:08:57;99644.91;;;12.65;48.65
71795;BME280;59641;45.188;5.712;2024-03-06T12:11:23;99654.84;;;12.64;47.99
71795;BME280;59641;45.188;5.712;2024-03-06T12:13:51;99648.78;;;12.69;47.10
71795;BME280;59641;45.188;5.712;2024-03-06T12:16:16;99648.56;;;12.70;46.45
71795;BME280;59641;45.188;5.712;2024-03-06T12:18:45;99641.53;;;12.69;47.14
71795;BME280;59641;45.188;5.712;2024-03-06T12:21:12;99646.47;;;12.72;46.04
71795;BME280;59641;45.188;5.712;2024-03-06T12:23:39;99634.28;;;12.70;44.68
71795;BME280;59641;45.188;5.712;2024-03-06T12:26:09;99639.81;;;12.75;45.15
71795;BME280;59641;45.188;5.712;2024-03-06T12:28:36;99646.25;;;12.74;46.06
71795;BME280;59641;45.188;5.712;2024-03-06T12:31:03;99645.22;;;12.75;46.08
71795;BME280;59641;45.188;5.712;2024-03-06T12:33:29;99641.66;;;12.74;45.68
71795;BME280;59641;45.188;5.712;2024-03-06T12:36:05;99646.03;;;12.75;46.10
71795;BME280;59641;45.188;5.712;2024-03-06T12:38:32;99644.34;;;12.74;45.72
71795;BME280;59641;45.188;5.712;2024-03-06T12:40:59;99654.56;;;12.72;44.53
71795;BME280;59641;45.188;5.712;2024-03-06T12:43:27;99643.19;;;12.70;44.84
71795;BME280;59641;45.188;5.712;2024-03-06T12:45:54;99653.38;;;12.68;45.32
71795;BME280;59641;45.188;5.712;2024-03-06T12:48:21;99651.94;;;12.66;45.50
71795;BME280;59641;45.188;5.712;2024-03-06T12:50:46;99645.28;;;12.68;45.38
71795;BME280;59641;45.188;5.712;2024-03-06T12:53:17;99641.53;;;12.69;45.41
71795;BME280;59641;45.188;5.712;2024-03-06T12:55:43;99642.94;;;12.72;45.37
71795;BME280;59641;45.188;5.712;2024-03-06T12:58:11;99638.16;;;12.74;45.21
71795;BME280;59641;45.188;5.712;2024-03-06T13:00:36;99627.78;;;12.77;44.63
71795;BME280;59641;45.188;5.712;2024-03-06T13:03:02;99629.63;;;12.77;43.34
71795;BME280;59641;45.188;5.712;2024-03-06T13:05:27;99630.47;;;12.77;44.09